JLY1207 SBGR-SAAR
Flight info
| Callsign | JLY1207 |
|---|---|
| Flight time | N/A |
| Altitude | 38000 |
| Route | SOVSI UZ85 RAXIT DCT UMDOR DCT ESLOT DCT URURI |
| Aircraft | A320/M-SDE2FGHIM1RWXYZ/S |
Departure
| Time | 2026-05-05 11:44 |
|---|---|
| Airport | São Paulo/Guarulhos–Governor André Franco Montoro International Airport (SBGR) |
Arrival
| Time | N/A |
|---|---|
| Airport | Rosario Islas Malvinas International Airport (SAAR) |
| Time | Latitude | Longitude | Altitude | Speed | Heading |
|---|---|---|---|---|---|
| 2026-05-05 11:15 | -23.42843 | -46.48058 | 2448 ft | 0 kts | 84° |
| 2026-05-05 11:33 | -23.42843 | -46.48067 | 2447 ft | 2 kts | 84° |
| 2026-05-05 11:33 | -23.42845 | -46.48084 | 2447 ft | 2 kts | 84° |
| 2026-05-05 11:34 | -23.42846 | -46.48101 | 2447 ft | 2 kts | 84° |
| 2026-05-05 11:34 | -23.42846 | -46.48117 | 2447 ft | 2 kts | 117° |
| 2026-05-05 11:34 | -23.42836 | -46.48129 | 2447 ft | 2 kts | 153° |
| 2026-05-05 11:34 | -23.42828 | -46.48132 | 2448 ft | 1 kts | 175° |
| 2026-05-05 11:35 | -23.42822 | -46.48132 | 2448 ft | 0 kts | 175° |
| 2026-05-05 11:38 | -23.42823 | -46.48132 | 2448 ft | 1 kts | 175° |
| 2026-05-05 11:38 | -23.42836 | -46.48131 | 2447 ft | 1 kts | 176° |
| 2026-05-05 11:39 | -23.42841 | -46.48130 | 2447 ft | 1 kts | 175° |
| 2026-05-05 11:39 | -23.42846 | -46.48130 | 2447 ft | 2 kts | 175° |
| 2026-05-05 11:39 | -23.42872 | -46.48128 | 2447 ft | 3 kts | 175° |
| 2026-05-05 11:39 | -23.42899 | -46.48128 | 2447 ft | 3 kts | 195° |
| 2026-05-05 11:40 | -23.42938 | -46.48139 | 2447 ft | 8 kts | 191° |
| 2026-05-05 11:40 | -23.43008 | -46.48134 | 2447 ft | 10 kts | 175° |
| 2026-05-05 11:40 | -23.43081 | -46.48128 | 2447 ft | 9 kts | 181° |
| 2026-05-05 11:40 | -23.43127 | -46.48176 | 2447 ft | 10 kts | 253° |
| 2026-05-05 11:41 | -23.43145 | -46.48243 | 2447 ft | 9 kts | 254° |
| 2026-05-05 11:41 | -23.43163 | -46.48312 | 2447 ft | 9 kts | 254° |
| 2026-05-05 11:41 | -23.43186 | -46.48382 | 2446 ft | 9 kts | 225° |
| 2026-05-05 11:41 | -23.43248 | -46.48382 | 2448 ft | 9 kts | 162° |
| 2026-05-05 11:42 | -23.43278 | -46.48372 | 2448 ft | 0 kts | 163° |
| 2026-05-05 11:42 | -23.43292 | -46.48367 | 2449 ft | 5 kts | 163° |
| 2026-05-05 11:43 | -23.43347 | -46.48350 | 2450 ft | 11 kts | 163° |
| 2026-05-05 11:43 | -23.43414 | -46.48310 | 2452 ft | 10 kts | 108° |
| 2026-05-05 11:43 | -23.43396 | -46.48219 | 2453 ft | 21 kts | 73° |
| 2026-05-05 11:43 | -23.43280 | -46.47793 | 2452 ft | 99 kts | 73° |
| 2026-05-05 11:44 | -23.43015 | -46.46798 | 2467 ft | 168 kts | 73° |
| 2026-05-05 11:44 | -23.42672 | -46.45539 | 3065 ft | 183 kts | 72° |
| 2026-05-05 11:44 | -23.42285 | -46.44196 | 3852 ft | 192 kts | 72° |
| 2026-05-05 11:44 | -23.41898 | -46.42818 | 4665 ft | 191 kts | 73° |
| 2026-05-05 11:45 | -23.41504 | -46.41378 | 5196 ft | 212 kts | 72° |
| 2026-05-05 11:45 | -23.41032 | -46.39788 | 5772 ft | 233 kts | 71° |
| 2026-05-05 11:45 | -23.40513 | -46.38022 | 6335 ft | 256 kts | 71° |
| 2026-05-05 11:45 | -23.40148 | -46.36091 | 6993 ft | 273 kts | 90° |
| 2026-05-05 11:46 | -23.40499 | -46.34042 | 7720 ft | 284 kts | 108° |
| 2026-05-05 11:46 | -23.41181 | -46.32010 | 8412 ft | 285 kts | 111° |
| 2026-05-05 11:46 | -23.41887 | -46.29995 | 8795 ft | 284 kts | 111° |
| 2026-05-05 11:46 | -23.42593 | -46.27994 | 8970 ft | 284 kts | 115° |
| 2026-05-05 11:47 | -23.43804 | -46.26278 | 9431 ft | 289 kts | 142° |
| 2026-05-05 11:47 | -23.45578 | -46.25258 | 10134 ft | 294 kts | 165° |
| 2026-05-05 11:47 | -23.47589 | -46.25071 | 10839 ft | 302 kts | 188° |
| 2026-05-05 11:47 | -23.49738 | -46.25499 | 11255 ft | 322 kts | 192° |
| 2026-05-05 11:48 | -23.54143 | -46.27116 | 12263 ft | 348 kts | 216° |
| 2026-05-05 11:48 | -23.55839 | -46.28999 | 12948 ft | 352 kts | 236° |
| 2026-05-05 11:48 | -23.56817 | -46.31428 | 13642 ft | 357 kts | 256° |
| 2026-05-05 11:49 | -23.57329 | -46.34077 | 14391 ft | 360 kts | 257° |
| 2026-05-05 11:49 | -23.57824 | -46.36743 | 15038 ft | 364 kts | 257° |
| 2026-05-05 11:49 | -23.58339 | -46.39462 | 15701 ft | 366 kts | 257° |
| 2026-05-05 11:49 | -23.58862 | -46.42184 | 16302 ft | 370 kts | 257° |
| 2026-05-05 11:50 | -23.59396 | -46.44930 | 16905 ft | 373 kts | 256° |
| 2026-05-05 11:50 | -23.59937 | -46.47694 | 17517 ft | 376 kts | 256° |
| 2026-05-05 11:50 | -23.60487 | -46.50494 | 18092 ft | 379 kts | 256° |
| 2026-05-05 11:50 | -23.60978 | -46.53315 | 18637 ft | 383 kts | 259° |
| 2026-05-05 11:51 | -23.61397 | -46.56210 | 19182 ft | 386 kts | 259° |
| 2026-05-05 11:51 | -23.61819 | -46.59087 | 19702 ft | 389 kts | 258° |
| 2026-05-05 11:51 | -23.62249 | -46.62004 | 20220 ft | 392 kts | 258° |
| 2026-05-05 11:51 | -23.62798 | -46.64919 | 20713 ft | 393 kts | 249° |
| 2026-05-05 11:52 | -23.63952 | -46.67517 | 21169 ft | 394 kts | 237° |
| 2026-05-05 11:52 | -23.65413 | -46.70020 | 21652 ft | 396 kts | 236° |
| 2026-05-05 11:52 | -23.66903 | -46.72566 | 22127 ft | 399 kts | 236° |
| 2026-05-05 11:52 | -23.68386 | -46.75117 | 22595 ft | 402 kts | 236° |
| 2026-05-05 11:53 | -23.69880 | -46.77694 | 23067 ft | 404 kts | 236° |
| 2026-05-05 11:53 | -23.71395 | -46.80306 | 23571 ft | 406 kts | 236° |
| 2026-05-05 11:53 | -23.72904 | -46.82869 | 24071 ft | 407 kts | 236° |
| 2026-05-05 11:53 | -23.74458 | -46.85504 | 24543 ft | 409 kts | 236° |
| 2026-05-05 11:54 | -23.75986 | -46.88098 | 25031 ft | 410 kts | 236° |
| 2026-05-05 11:54 | -23.77541 | -46.90740 | 25476 ft | 413 kts | 236° |
| 2026-05-05 11:54 | -23.79076 | -46.93352 | 25945 ft | 414 kts | 236° |
| 2026-05-05 11:54 | -23.80636 | -46.96006 | 26404 ft | 415 kts | 237° |
| 2026-05-05 11:55 | -23.82202 | -46.98672 | 26849 ft | 416 kts | 237° |
| 2026-05-05 11:55 | -23.83758 | -47.01324 | 27256 ft | 418 kts | 237° |
| 2026-05-05 11:55 | -23.85315 | -47.03976 | 27652 ft | 419 kts | 237° |
| 2026-05-05 11:55 | -23.86895 | -47.06670 | 28060 ft | 421 kts | 237° |
| 2026-05-05 11:56 | -23.88474 | -47.09364 | 28447 ft | 422 kts | 237° |
| 2026-05-05 11:56 | -23.90058 | -47.12067 | 28822 ft | 423 kts | 237° |
| 2026-05-05 11:56 | -23.91635 | -47.14761 | 29212 ft | 424 kts | 237° |
| 2026-05-05 11:56 | -23.93246 | -47.17514 | 29562 ft | 426 kts | 237° |
| 2026-05-05 11:57 | -23.94833 | -47.20227 | 29912 ft | 427 kts | 237° |
| 2026-05-05 11:57 | -23.96436 | -47.22971 | 30224 ft | 428 kts | 237° |
| 2026-05-05 11:57 | -23.98041 | -47.25718 | 30530 ft | 429 kts | 237° |
| 2026-05-05 11:57 | -23.99636 | -47.28450 | 30823 ft | 431 kts | 237° |
| 2026-05-05 11:58 | -24.01254 | -47.31221 | 31218 ft | 430 kts | 237° |
| 2026-05-05 11:58 | -24.02867 | -47.33988 | 31689 ft | 427 kts | 237° |
| 2026-05-05 11:58 | -24.04457 | -47.36719 | 32148 ft | 424 kts | 236° |
| 2026-05-05 11:58 | -24.06038 | -47.39434 | 32587 ft | 421 kts | 236° |
| 2026-05-05 11:59 | -24.07592 | -47.42105 | 33010 ft | 419 kts | 236° |
| 2026-05-05 11:59 | -24.09227 | -47.44768 | 33362 ft | 417 kts | 231° |
| 2026-05-05 11:59 | -24.11141 | -47.47112 | 33726 ft | 415 kts | 223° |
| 2026-05-05 11:59 | -24.13361 | -47.49105 | 34147 ft | 413 kts | 215° |
| 2026-05-05 12:00 | -24.15764 | -47.50798 | 34565 ft | 411 kts | 213° |
| 2026-05-05 12:00 | -24.18193 | -47.52485 | 34961 ft | 408 kts | 213° |
| 2026-05-05 12:00 | -24.20595 | -47.54159 | 35272 ft | 408 kts | 214° |
| 2026-05-05 12:00 | -24.22999 | -47.55835 | 35656 ft | 406 kts | 214° |
| 2026-05-05 12:01 | -24.25382 | -47.57496 | 36026 ft | 404 kts | 214° |
| 2026-05-05 12:01 | -24.27738 | -47.59139 | 36310 ft | 403 kts | 214° |
| 2026-05-05 12:01 | -24.30102 | -47.60787 | 36607 ft | 402 kts | 214° |
| 2026-05-05 12:01 | -24.32462 | -47.62431 | 36910 ft | 401 kts | 214° |
| 2026-05-05 12:02 | -24.34820 | -47.64075 | 37171 ft | 400 kts | 214° |
| 2026-05-05 12:02 | -24.37173 | -47.65715 | 37449 ft | 399 kts | 214° |
| 2026-05-05 12:02 | -24.39541 | -47.67368 | 37723 ft | 398 kts | 215° |
| 2026-05-05 12:02 | -24.41832 | -47.69093 | 37970 ft | 397 kts | 220° |
| 2026-05-05 12:03 | -24.43897 | -47.71054 | 38167 ft | 396 kts | 225° |
| 2026-05-05 12:03 | -24.45893 | -47.73172 | 38211 ft | 396 kts | 225° |
| 2026-05-05 12:03 | -24.49845 | -47.77353 | 38220 ft | 395 kts | 225° |
| 2026-05-05 12:04 | -24.53804 | -47.81545 | 38224 ft | 395 kts | 225° |
| 2026-05-05 12:04 | -24.57780 | -47.85756 | 38229 ft | 395 kts | 225° |
| 2026-05-05 12:05 | -24.61713 | -47.89927 | 38227 ft | 395 kts | 225° |
| 2026-05-05 12:05 | -24.65679 | -47.94138 | 38213 ft | 396 kts | 225° |
| 2026-05-05 12:06 | -24.69645 | -47.98352 | 38231 ft | 396 kts | 225° |
| 2026-05-05 12:06 | -24.73587 | -48.02545 | 38228 ft | 396 kts | 225° |
| 2026-05-05 12:07 | -24.77564 | -48.06779 | 38227 ft | 396 kts | 225° |
| 2026-05-05 12:07 | -24.81512 | -48.10987 | 38243 ft | 396 kts | 225° |
| 2026-05-05 12:08 | -24.85470 | -48.15208 | 38243 ft | 395 kts | 225° |
| 2026-05-05 12:08 | -24.89401 | -48.19405 | 38235 ft | 396 kts | 225° |
| 2026-05-05 12:09 | -24.93346 | -48.23621 | 38244 ft | 395 kts | 225° |
| 2026-05-05 12:09 | -24.97293 | -48.27843 | 38272 ft | 395 kts | 225° |
| 2026-05-05 12:10 | -25.01252 | -48.32081 | 38283 ft | 395 kts | 225° |
| 2026-05-05 12:10 | -25.05180 | -48.36291 | 38269 ft | 395 kts | 225° |
| 2026-05-05 12:11 | -25.09123 | -48.40521 | 38263 ft | 395 kts | 225° |
| 2026-05-05 12:11 | -25.13093 | -48.44710 | 38252 ft | 396 kts | 223° |
| 2026-05-05 12:12 | -25.17199 | -48.48763 | 38256 ft | 396 kts | 223° |
| 2026-05-05 12:12 | -25.21298 | -48.52822 | 38251 ft | 396 kts | 223° |
| 2026-05-05 12:13 | -25.25415 | -48.56904 | 38238 ft | 396 kts | 223° |
| 2026-05-05 12:13 | -25.29500 | -48.60955 | 38236 ft | 396 kts | 223° |
| 2026-05-05 12:14 | -25.33611 | -48.65038 | 38242 ft | 396 kts | 224° |
| 2026-05-05 12:14 | -25.37686 | -48.69088 | 38241 ft | 396 kts | 223° |
| 2026-05-05 12:15 | -25.41812 | -48.73192 | 38240 ft | 397 kts | 223° |
| 2026-05-05 12:15 | -25.45891 | -48.77254 | 38264 ft | 397 kts | 223° |
| 2026-05-05 12:16 | -25.49990 | -48.81339 | 38275 ft | 396 kts | 224° |
| 2026-05-05 12:16 | -25.54081 | -48.85424 | 38286 ft | 396 kts | 224° |
| 2026-05-05 12:17 | -25.58179 | -48.89514 | 38291 ft | 396 kts | 224° |
| 2026-05-05 12:17 | -25.62277 | -48.93609 | 38285 ft | 396 kts | 224° |
| 2026-05-05 12:18 | -25.66361 | -48.97695 | 38285 ft | 395 kts | 223° |
| 2026-05-05 12:18 | -25.70446 | -49.01786 | 38295 ft | 395 kts | 224° |
| 2026-05-05 12:19 | -25.74533 | -49.05883 | 38289 ft | 395 kts | 224° |
| 2026-05-05 12:19 | -25.78595 | -49.09959 | 38301 ft | 395 kts | 224° |
| 2026-05-05 12:20 | -25.82672 | -49.14054 | 38303 ft | 395 kts | 224° |
| 2026-05-05 12:20 | -25.86737 | -49.18140 | 38302 ft | 395 kts | 224° |
| 2026-05-05 12:21 | -25.90799 | -49.22228 | 38302 ft | 395 kts | 224° |
| 2026-05-05 12:21 | -25.94869 | -49.26329 | 38306 ft | 394 kts | 224° |
| 2026-05-05 12:22 | -25.98912 | -49.30405 | 38307 ft | 394 kts | 224° |
| 2026-05-05 12:22 | -26.02976 | -49.34506 | 38310 ft | 394 kts | 224° |
| 2026-05-05 12:23 | -26.07044 | -49.38620 | 38308 ft | 394 kts | 224° |
| 2026-05-05 12:23 | -26.11084 | -49.42706 | 38310 ft | 394 kts | 224° |
| 2026-05-05 12:24 | -26.15153 | -49.46825 | 38308 ft | 394 kts | 224° |
| 2026-05-05 12:24 | -26.19222 | -49.50948 | 38312 ft | 394 kts | 224° |
| 2026-05-05 12:25 | -26.23267 | -49.55048 | 38313 ft | 394 kts | 224° |
| 2026-05-05 12:25 | -26.27300 | -49.59182 | 38312 ft | 394 kts | 224° |
| 2026-05-05 12:26 | -26.31314 | -49.63331 | 38313 ft | 393 kts | 225° |
| 2026-05-05 12:26 | -26.35312 | -49.67500 | 38308 ft | 394 kts | 224° |
| 2026-05-05 12:27 | -26.39354 | -49.71624 | 38310 ft | 394 kts | 224° |
| 2026-05-05 12:27 | -26.43373 | -49.75740 | 38318 ft | 394 kts | 224° |
| 2026-05-05 12:28 | -26.47409 | -49.79900 | 38313 ft | 394 kts | 224° |
| 2026-05-05 12:28 | -26.51423 | -49.84044 | 38316 ft | 393 kts | 224° |
| 2026-05-05 12:29 | -26.55434 | -49.88190 | 38303 ft | 393 kts | 224° |
| 2026-05-05 12:29 | -26.59446 | -49.92342 | 38295 ft | 392 kts | 225° |
| 2026-05-05 12:30 | -26.63447 | -49.96484 | 38291 ft | 392 kts | 224° |
| 2026-05-05 12:30 | -26.67445 | -50.00622 | 38290 ft | 391 kts | 224° |
| 2026-05-05 12:31 | -26.71443 | -50.04770 | 38287 ft | 391 kts | 224° |
| 2026-05-05 12:31 | -26.75420 | -50.08902 | 38288 ft | 391 kts | 225° |
| 2026-05-05 12:32 | -26.79421 | -50.13063 | 38288 ft | 391 kts | 225° |
| 2026-05-05 12:32 | -26.83398 | -50.17204 | 38300 ft | 391 kts | 225° |
| 2026-05-05 12:33 | -26.87368 | -50.21341 | 38303 ft | 390 kts | 225° |
| 2026-05-05 12:33 | -26.91334 | -50.25478 | 38312 ft | 390 kts | 225° |
| 2026-05-05 12:34 | -26.95309 | -50.29629 | 38309 ft | 390 kts | 225° |
| 2026-05-05 12:34 | -26.99296 | -50.33796 | 38310 ft | 390 kts | 224° |
| 2026-05-05 12:35 | -27.03263 | -50.37946 | 38316 ft | 390 kts | 225° |
| 2026-05-05 12:35 | -27.07228 | -50.42098 | 38320 ft | 390 kts | 225° |
| 2026-05-05 12:36 | -27.11176 | -50.46238 | 38319 ft | 390 kts | 225° |
| 2026-05-05 12:36 | -27.15150 | -50.50408 | 38320 ft | 391 kts | 225° |
| 2026-05-05 12:37 | -27.19130 | -50.54589 | 38319 ft | 391 kts | 225° |
| 2026-05-05 12:37 | -27.23108 | -50.58772 | 38314 ft | 392 kts | 225° |
| 2026-05-05 12:38 | -27.27073 | -50.62946 | 38319 ft | 391 kts | 225° |
| 2026-05-05 12:38 | -27.31060 | -50.67147 | 38318 ft | 392 kts | 225° |
| 2026-05-05 12:39 | -27.35045 | -50.71351 | 38317 ft | 392 kts | 225° |
| 2026-05-05 12:39 | -27.39014 | -50.75542 | 38321 ft | 392 kts | 225° |
| 2026-05-05 12:40 | -27.42991 | -50.79746 | 38323 ft | 392 kts | 225° |
| 2026-05-05 12:40 | -27.46970 | -50.83956 | 38319 ft | 392 kts | 225° |
| 2026-05-05 12:41 | -27.50923 | -50.88144 | 38314 ft | 392 kts | 225° |
| 2026-05-05 12:41 | -27.54886 | -50.92345 | 38310 ft | 391 kts | 225° |
| 2026-05-05 12:42 | -27.58846 | -50.96549 | 38304 ft | 391 kts | 225° |
| 2026-05-05 12:42 | -27.62806 | -51.00756 | 38295 ft | 391 kts | 225° |
| 2026-05-05 12:43 | -27.66758 | -51.04959 | 38295 ft | 390 kts | 225° |
| 2026-05-05 12:43 | -27.70709 | -51.09167 | 38296 ft | 390 kts | 225° |
| 2026-05-05 12:44 | -27.74656 | -51.13373 | 38286 ft | 390 kts | 226° |
| 2026-05-05 12:44 | -27.78608 | -51.17590 | 38292 ft | 390 kts | 226° |
| 2026-05-05 12:45 | -27.82559 | -51.21810 | 38290 ft | 390 kts | 226° |
| 2026-05-05 12:45 | -27.86502 | -51.26026 | 38291 ft | 390 kts | 226° |
| 2026-05-05 12:46 | -27.90438 | -51.30241 | 38300 ft | 390 kts | 225° |
| 2026-05-05 12:46 | -27.94379 | -51.34465 | 38309 ft | 390 kts | 225° |
| 2026-05-05 12:47 | -27.98311 | -51.38682 | 38310 ft | 390 kts | 226° |
| 2026-05-05 12:47 | -28.02245 | -51.42907 | 38304 ft | 390 kts | 226° |
| 2026-05-05 12:48 | -28.06276 | -51.47074 | 38296 ft | 394 kts | 217° |
| 2026-05-05 12:48 | -28.10799 | -51.50577 | 38302 ft | 393 kts | 222° |
| 2026-05-05 12:49 | -28.14941 | -51.54577 | 38296 ft | 392 kts | 224° |
| 2026-05-05 12:49 | -28.18983 | -51.58730 | 38294 ft | 392 kts | 225° |
| 2026-05-05 12:50 | -28.22997 | -51.62953 | 38291 ft | 392 kts | 225° |
| 2026-05-05 12:50 | -28.26972 | -51.67178 | 38288 ft | 392 kts | 226° |
| 2026-05-05 12:51 | -28.30943 | -51.71417 | 38293 ft | 392 kts | 226° |
| 2026-05-05 12:51 | -28.34925 | -51.75678 | 38292 ft | 393 kts | 226° |
| 2026-05-05 12:52 | -28.38904 | -51.79943 | 38283 ft | 393 kts | 226° |
| 2026-05-05 12:52 | -28.42873 | -51.84202 | 38281 ft | 393 kts | 226° |
| 2026-05-05 12:53 | -28.46837 | -51.88461 | 38282 ft | 393 kts | 226° |
| 2026-05-05 12:53 | -28.50816 | -51.92741 | 38270 ft | 392 kts | 226° |
| 2026-05-05 12:54 | -28.56753 | -51.99136 | 38261 ft | 392 kts | 226° |
| 2026-05-05 12:55 | -28.60714 | -52.03409 | 38251 ft | 392 kts | 226° |
| 2026-05-05 12:55 | -28.64670 | -52.07679 | 38244 ft | 392 kts | 226° |
| 2026-05-05 12:56 | -28.68637 | -52.11968 | 38246 ft | 392 kts | 226° |
| 2026-05-05 12:56 | -28.72588 | -52.16243 | 38247 ft | 392 kts | 226° |
| 2026-05-05 12:57 | -28.76542 | -52.20527 | 38250 ft | 392 kts | 226° |
| 2026-05-05 12:57 | -28.80495 | -52.24815 | 38256 ft | 392 kts | 226° |
| 2026-05-05 12:58 | -28.84438 | -52.29096 | 38249 ft | 392 kts | 226° |
| 2026-05-05 12:58 | -28.88392 | -52.33394 | 38241 ft | 392 kts | 226° |
| 2026-05-05 12:59 | -28.92318 | -52.37668 | 38235 ft | 392 kts | 226° |
| 2026-05-05 12:59 | -28.96283 | -52.41987 | 38225 ft | 392 kts | 226° |
| 2026-05-05 13:00 | -29.02204 | -52.48437 | 38225 ft | 392 kts | 226° |
| 2026-05-05 13:01 | -29.10081 | -52.57047 | 38229 ft | 392 kts | 226° |
| 2026-05-05 13:01 | -29.14028 | -52.61369 | 38234 ft | 393 kts | 226° |
| 2026-05-05 13:02 | -29.17974 | -52.65694 | 38236 ft | 393 kts | 227° |
| 2026-05-05 13:02 | -29.21943 | -52.70050 | 38236 ft | 394 kts | 227° |
| 2026-05-05 13:03 | -29.25870 | -52.74363 | 38236 ft | 394 kts | 227° |
| 2026-05-05 13:03 | -29.29840 | -52.78730 | 38232 ft | 394 kts | 227° |
| 2026-05-05 13:04 | -29.33773 | -52.83060 | 38232 ft | 394 kts | 227° |
| 2026-05-05 13:04 | -29.37730 | -52.87421 | 38227 ft | 394 kts | 227° |
| 2026-05-05 13:05 | -29.41672 | -52.91771 | 38220 ft | 393 kts | 227° |
| 2026-05-05 13:05 | -29.45596 | -52.96106 | 38213 ft | 393 kts | 227° |
| 2026-05-05 13:06 | -29.49541 | -53.00469 | 38211 ft | 394 kts | 227° |
| 2026-05-05 13:06 | -29.53469 | -53.04818 | 38202 ft | 393 kts | 227° |
| 2026-05-05 13:07 | -29.57421 | -53.09199 | 38192 ft | 393 kts | 227° |
| 2026-05-05 13:07 | -29.61349 | -53.13557 | 38178 ft | 394 kts | 227° |
| 2026-05-05 13:08 | -29.65275 | -53.17920 | 38174 ft | 394 kts | 227° |
| 2026-05-05 13:08 | -29.69221 | -53.22308 | 38169 ft | 394 kts | 227° |
| 2026-05-05 13:09 | -29.73149 | -53.26683 | 38165 ft | 394 kts | 227° |
| 2026-05-05 13:09 | -29.77074 | -53.31058 | 38161 ft | 394 kts | 227° |
| 2026-05-05 13:10 | -29.81003 | -53.35444 | 38163 ft | 394 kts | 227° |
| 2026-05-05 13:10 | -29.84953 | -53.39858 | 38169 ft | 394 kts | 227° |
| 2026-05-05 13:11 | -29.88877 | -53.44247 | 38175 ft | 394 kts | 227° |
| 2026-05-05 13:11 | -29.92800 | -53.48642 | 38171 ft | 395 kts | 227° |
| 2026-05-05 13:12 | -29.96757 | -53.53077 | 38175 ft | 394 kts | 227° |
| 2026-05-05 13:12 | -30.00671 | -53.57471 | 38165 ft | 394 kts | 227° |
| 2026-05-05 13:13 | -30.04603 | -53.61889 | 38164 ft | 395 kts | 227° |
| 2026-05-05 13:13 | -30.08534 | -53.66311 | 38168 ft | 395 kts | 228° |
| 2026-05-05 13:14 | -30.12477 | -53.70753 | 38176 ft | 396 kts | 228° |
| 2026-05-05 13:14 | -30.16430 | -53.75212 | 38184 ft | 396 kts | 228° |
| 2026-05-05 13:15 | -30.20378 | -53.79670 | 38193 ft | 397 kts | 228° |
| 2026-05-05 13:15 | -30.24298 | -53.84103 | 38190 ft | 396 kts | 228° |
| 2026-05-05 13:16 | -30.28236 | -53.88562 | 38188 ft | 396 kts | 228° |
| 2026-05-05 13:16 | -30.32169 | -53.93019 | 38181 ft | 396 kts | 228° |
| 2026-05-05 13:17 | -30.36099 | -53.97478 | 38179 ft | 395 kts | 228° |
| 2026-05-05 13:17 | -30.40029 | -54.01942 | 38173 ft | 395 kts | 228° |
| 2026-05-05 13:18 | -30.43926 | -54.06374 | 38168 ft | 395 kts | 228° |
| 2026-05-05 13:18 | -30.47857 | -54.10850 | 38168 ft | 395 kts | 228° |
| 2026-05-05 13:19 | -30.51753 | -54.15292 | 38169 ft | 394 kts | 228° |
| 2026-05-05 13:19 | -30.55677 | -54.19770 | 38167 ft | 394 kts | 228° |
| 2026-05-05 13:20 | -30.59563 | -54.24211 | 38159 ft | 394 kts | 228° |
| 2026-05-05 13:20 | -30.63470 | -54.28681 | 38157 ft | 394 kts | 228° |
| 2026-05-05 13:21 | -30.67368 | -54.33147 | 38163 ft | 394 kts | 228° |
| 2026-05-05 13:21 | -30.71289 | -54.37643 | 38161 ft | 394 kts | 228° |
| 2026-05-05 13:22 | -30.75180 | -54.42111 | 38170 ft | 394 kts | 228° |
| 2026-05-05 13:22 | -30.79066 | -54.46578 | 38165 ft | 394 kts | 228° |
| 2026-05-05 13:23 | -30.82965 | -54.51067 | 38163 ft | 394 kts | 228° |
| 2026-05-05 13:23 | -30.86885 | -54.55585 | 38167 ft | 395 kts | 229° |
| 2026-05-05 13:24 | -30.90769 | -54.60068 | 38158 ft | 395 kts | 229° |
| 2026-05-05 13:24 | -30.94679 | -54.64585 | 38164 ft | 395 kts | 229° |
| 2026-05-05 13:25 | -30.98580 | -54.69097 | 38161 ft | 396 kts | 229° |
| 2026-05-05 13:25 | -31.02471 | -54.73603 | 38168 ft | 396 kts | 229° |
| 2026-05-05 13:26 | -31.06384 | -54.78140 | 38181 ft | 396 kts | 229° |
| 2026-05-05 13:26 | -31.10292 | -54.82677 | 38176 ft | 396 kts | 229° |
| 2026-05-05 13:27 | -31.14188 | -54.87205 | 38171 ft | 396 kts | 229° |
| 2026-05-05 13:27 | -31.18094 | -54.91750 | 38170 ft | 396 kts | 229° |
| 2026-05-05 13:28 | -31.21992 | -54.96292 | 38163 ft | 396 kts | 229° |
| 2026-05-05 13:28 | -31.25704 | -55.00985 | 38164 ft | 392 kts | 237° |
| 2026-05-05 13:29 | -31.28254 | -55.06541 | 38163 ft | 389 kts | 249° |
| 2026-05-05 13:29 | -31.30290 | -55.12390 | 38165 ft | 388 kts | 249° |
| 2026-05-05 13:30 | -31.32326 | -55.18233 | 38157 ft | 387 kts | 249° |
| 2026-05-05 13:30 | -31.34344 | -55.24025 | 38148 ft | 386 kts | 249° |
| 2026-05-05 13:31 | -31.36369 | -55.29846 | 38142 ft | 386 kts | 249° |
| 2026-05-05 13:31 | -31.38386 | -55.35651 | 38143 ft | 386 kts | 249° |
| 2026-05-05 13:32 | -31.40395 | -55.41446 | 38145 ft | 385 kts | 249° |
| 2026-05-05 13:32 | -31.42409 | -55.47264 | 38148 ft | 385 kts | 249° |
| 2026-05-05 13:33 | -31.44406 | -55.53043 | 38148 ft | 385 kts | 249° |
| 2026-05-05 13:33 | -31.46407 | -55.58842 | 38152 ft | 385 kts | 249° |